Time,TemperatureF,DewpointF,PressureIn,WindDirection,WindDirectionDegrees,WindSpeedMPH,WindSpeedGustMPH,Humidity,HourlyPrecipIn,Conditions,Clouds,dailyrainin,SoftwareType,DateUTC
2013-03-12 00:05:00,65.5,60.0,29.94,SSE,165,0.0,2.0,81,0.00,,,0.00,weatherlink.com 1.10,2013-03-12 04:05:00,
2013-03-12 00:20:00,66.6,61.0,29.93,SSE,157,1.0,4.0,81,0.00,,,0.00,weatherlink.com 1.10,2013-03-12 04:20:00,
2013-03-12 00:35:00,67.2,61.0,29.92,SSE,155,2.0,4.0,81,0.00,,,0.00,weatherlink.com 1.10,2013-03-12 04:35:00,
2013-03-12 00:50:00,67.5,61.0,29.91,SE,136,4.0,8.0,80,0.00,,,0.00,weatherlink.com 1.10,2013-03-12 04:50:00,
2013-03-12 01:05:00,67.5,62.0,29.90,SE,130,3.0,8.0,81,0.00,,,0.00,weatherlink.com 1.10,2013-03-12 05:05:00,
2013-03-12 01:20:00,67.3,62.0,29.91,SE,141,3.0,5.0,82,0.00,,,0.00,weatherlink.com 1.10,2013-03-12 05:20:00,
2013-03-12 01:35:00,67.2,62.0,29.91,SSE,163,2.0,6.0,82,0.00,,,0.00,weatherlink.com 1.10,2013-03-12 05:35:00,
2013-03-12 01:50:00,67.2,62.0,29.91,SE,141,2.0,5.0,82,0.00,,,0.00,weatherlink.com 1.10,2013-03-12 05:50:00,
2013-03-12 02:05:00,67.3,62.0,29.90,SSE,148,2.0,5.0,82,0.00,,,0.00,weatherlink.com 1.10,2013-03-12 06:05:00,
2013-03-12 02:20:00,67.1,61.0,29.92,South,173,0.0,4.0,82,0.00,,,0.00,weatherlink.com 1.10,2013-03-12 06:20:00,
2013-03-12 02:35:00,67.1,62.0,29.93,SSW,195,1.0,5.0,83,0.00,,,0.00,weatherlink.com 1.10,2013-03-12 06:35:00,
2013-03-12 02:50:00,67.1,62.0,29.93,South,173,0.0,5.0,83,0.00,,,0.00,weatherlink.com 1.10,2013-03-12 06:50:00,
2013-03-12 03:05:00,67.2,62.0,29.92,South,172,1.0,4.0,83,0.00,,,0.00,weatherlink.com 1.10,2013-03-12 07:05:00,
2013-03-12 03:20:00,67.0,62.0,29.91,SSE,166,1.0,2.0,83,0.00,,,0.00,weatherlink.com 1.10,2013-03-12 07:20:00,
2013-03-12 03:35:00,67.0,62.0,29.92,SW,234,0.0,5.0,83,0.00,,,0.00,weatherlink.com 1.10,2013-03-12 07:35:00,
2013-03-12 03:50:00,66.9,62.0,29.90,SSE,163,1.0,5.0,84,0.00,,,0.00,weatherlink.com 1.10,2013-03-12 07:50:00,
2013-03-12 04:05:00,66.7,62.0,29.90,ESE,117,5.0,8.0,84,0.00,,,0.00,weatherlink.com 1.10,2013-03-12 08:05:00,
2013-03-12 04:20:00,66.3,61.0,29.89,SSE,165,2.0,4.0,84,0.00,,,0.00,weatherlink.com 1.10,2013-03-12 08:20:00,
2013-03-12 04:35:00,66.0,61.0,29.89,South,169,2.0,3.0,85,0.00,,,0.00,weatherlink.com 1.10,2013-03-12 08:35:00,
2013-03-12 04:50:00,65.7,62.0,29.90,South,178,2.0,3.0,86,0.00,,,0.00,weatherlink.com 1.10,2013-03-12 08:50:00,
2013-03-12 05:05:00,65.6,61.0,29.88,SSE,151,2.0,4.0,86,0.00,,,0.00,weatherlink.com 1.10,2013-03-12 09:05:00,
2013-03-12 05:20:00,65.8,62.0,29.88,SSW,193,2.0,4.0,86,0.00,,,0.00,weatherlink.com 1.10,2013-03-12 09:20:00,
2013-03-12 05:35:00,65.9,62.0,29.87,SSE,161,3.0,5.0,86,0.00,,,0.00,weatherlink.com 1.10,2013-03-12 09:35:00,
2013-03-12 05:50:00,66.1,62.0,29.88,SSE,149,2.0,6.0,86,0.00,,,0.00,weatherlink.com 1.10,2013-03-12 09:50:00,
2013-03-12 06:05:00,66.0,62.0,29.90,SSW,197,1.0,5.0,87,0.00,,,0.00,weatherlink.com 1.10,2013-03-12 10:05:00,
2013-03-12 06:20:00,65.7,62.0,29.88,South,190,2.0,6.0,88,0.00,,,0.00,weatherlink.com 1.10,2013-03-12 10:20:00,
2013-03-12 06:35:00,65.5,62.0,29.88,South,177,0.0,4.0,88,0.00,,,0.00,weatherlink.com 1.10,2013-03-12 10:35:00,
2013-03-12 06:50:00,65.5,62.0,29.89,South,174,0.0,3.0,88,0.00,,,0.00,weatherlink.com 1.10,2013-03-12 10:50:00,
2013-03-12 07:05:00,65.7,62.0,29.89,SSE,164,1.0,4.0,88,0.00,,,0.00,weatherlink.com 1.10,2013-03-12 11:05:00,
2013-03-12 07:20:00,65.9,62.0,29.89,South,182,1.0,3.0,88,0.00,,,0.00,weatherlink.com 1.10,2013-03-12 11:20:00,
2013-03-12 07:35:00,66.3,63.0,29.89,SSE,148,3.0,4.0,88,0.00,,,0.00,weatherlink.com 1.10,2013-03-12 11:35:00,
2013-03-12 07:50:00,66.7,63.0,29.90,South,191,1.0,5.0,87,0.00,,,0.00,weatherlink.com 1.10,2013-03-12 11:50:00,
2013-03-12 08:05:00,66.9,63.0,29.91,South,184,3.0,8.0,88,0.01,,,0.01,weatherlink.com 1.10,2013-03-12 12:05:00,
2013-03-12 08:20:00,66.4,63.0,29.91,South,173,0.0,3.0,89,0.08,,,0.08,weatherlink.com 1.10,2013-03-12 12:20:00,
2013-03-12 08:35:00,66.0,63.0,29.92,SSE,166,0.0,3.0,91,0.10,,,0.10,weatherlink.com 1.10,2013-03-12 12:35:00,
2013-03-12 08:51:00,65.7,63.0,29.91,SSW,192,2.0,4.0,92,0.11,,,0.11,weatherlink.com 1.10,2013-03-12 12:51:00,
2013-03-12 09:06:00,65.7,64.0,29.92,SSE,162,1.0,5.0,93,0.11,,,0.12,weatherlink.com 1.10,2013-03-12 13:06:00,
2013-03-12 09:21:00,65.8,64.0,29.92,SSE,153,1.0,4.0,94,0.08,,,0.16,weatherlink.com 1.10,2013-03-12 13:21:00,
2013-03-12 09:36:00,65.9,64.0,29.93,SSE,153,0.0,3.0,94,0.06,,,0.16,weatherlink.com 1.10,2013-03-12 13:36:00,
2013-03-12 09:51:00,66.1,65.0,29.93,SW,217,1.0,4.0,95,0.06,,,0.17,weatherlink.com 1.10,2013-03-12 13:51:00,
2013-03-12 10:06:00,66.1,65.0,29.94,South,182,1.0,8.0,95,0.08,,,0.20,weatherlink.com 1.10,2013-03-12 14:06:00,
2013-03-12 10:21:00,66.3,65.0,29.94,South,188,1.0,5.0,95,0.06,,,0.22,weatherlink.com 1.10,2013-03-12 14:21:00,
2013-03-12 10:51:00,66.4,65.0,29.95,South,178,0.0,5.0,96,0.12,,,0.29,weatherlink.com 1.10,2013-03-12 14:51:00,
2013-03-12 11:06:00,66.7,66.0,29.95,South,188,3.0,9.0,96,0.11,,,0.31,weatherlink.com 1.10,2013-03-12 15:06:00,
2013-03-12 11:21:00,67.3,66.0,29.94,SSE,159,4.0,13.0,96,0.09,,,0.31,weatherlink.com 1.10,2013-03-12 15:21:00,
2013-03-12 12:06:00,68.3,67.0,29.93,South,178,2.0,10.0,96,0.01,,,0.32,weatherlink.com 1.10,2013-03-12 16:06:00,
2013-03-12 13:06:00,71.0,68.0,29.93,SW,221,5.0,11.0,90,0.00,,,0.32,weatherlink.com 1.10,2013-03-12 17:06:00,
2013-03-12 13:36:00,70.1,67.0,29.93,SSW,196,5.0,13.0,88,0.00,,,0.32,weatherlink.com 1.10,2013-03-12 17:36:00,
2013-03-12 13:51:00,70.7,67.0,29.92,SSW,200,2.0,15.0,87,0.00,,,0.32,weatherlink.com 1.10,2013-03-12 17:51:00,
2013-03-12 14:06:00,70.8,67.0,29.92,South,186,3.0,16.0,87,0.00,,,0.32,weatherlink.com 1.10,2013-03-12 18:06:00,
2013-03-12 14:21:00,70.2,67.0,29.92,WSW,244,4.0,15.0,88,0.00,,,0.32,weatherlink.com 1.10,2013-03-12 18:21:00,
2013-03-12 14:36:00,69.6,66.0,29.92,SSW,212,4.0,13.0,89,0.00,,,0.32,weatherlink.com 1.10,2013-03-12 18:36:00,
2013-03-12 14:51:00,68.5,66.0,29.92,WSW,248,4.0,9.0,92,0.00,,,0.32,weatherlink.com 1.10,2013-03-12 18:51:00,
2013-03-12 15:06:00,68.3,66.0,29.91,WSW,255,1.0,8.0,92,0.00,,,0.32,weatherlink.com 1.10,2013-03-12 19:06:00,
2013-03-12 15:21:00,68.7,66.0,29.91,WSW,254,3.0,7.0,90,0.00,,,0.32,weatherlink.com 1.10,2013-03-12 19:21:00,
2013-03-12 16:06:00,66.3,64.0,29.92,SW,231,3.0,9.0,92,0.00,,,0.32,weatherlink.com 1.10,2013-03-12 20:06:00,
2013-03-12 16:21:00,67.0,64.0,29.92,WSW,241,1.0,6.0,91,0.00,,,0.32,weatherlink.com 1.10,2013-03-12 20:21:00,
2013-03-12 16:36:00,68.4,65.0,29.92,SSW,211,1.0,6.0,89,0.00,,,0.32,weatherlink.com 1.10,2013-03-12 20:36:00,
2013-03-12 17:06:00,70.6,66.0,29.91,WSW,258,2.0,8.0,86,0.00,,,0.32,weatherlink.com 1.10,2013-03-12 21:06:00,
2013-03-12 17:21:00,70.5,66.0,29.90,WNW,294,0.0,6.0,84,0.00,,,0.32,weatherlink.com 1.10,2013-03-12 21:21:00,
2013-03-12 17:36:00,70.7,65.0,29.90,SW,223,4.0,8.0,83,0.00,,,0.32,weatherlink.com 1.10,2013-03-12 21:36:00,
2013-03-12 17:51:00,70.0,65.0,29.91,SW,216,2.0,8.0,84,0.00,,,0.32,weatherlink.com 1.10,2013-03-12 21:51:00,
2013-03-12 18:06:00,68.9,64.0,29.91,West,273,2.0,11.0,83,0.00,,,0.32,weatherlink.com 1.10,2013-03-12 22:06:00,
2013-03-12 18:21:00,67.8,63.0,29.92,West,266,4.0,9.0,84,0.00,,,0.32,weatherlink.com 1.10,2013-03-12 22:21:00,
2013-03-12 18:36:00,66.8,62.0,29.92,West,266,4.0,9.0,84,0.00,,,0.32,weatherlink.com 1.10,2013-03-12 22:36:00,
2013-03-12 18:51:00,65.7,61.0,29.93,WSW,238,4.0,8.0,84,0.00,,,0.32,weatherlink.com 1.10,2013-03-12 22:51:00,
2013-03-12 19:06:00,64.8,60.0,29.93,West,259,2.0,6.0,85,0.00,,,0.32,weatherlink.com 1.10,2013-03-12 23:06:00,
2013-03-12 19:36:00,63.5,59.0,29.94,West,261,2.0,6.0,85,0.00,,,0.32,weatherlink.com 1.10,2013-03-12 23:36:00,
2013-03-12 19:51:00,62.8,58.0,29.94,West,260,0.0,4.0,85,0.00,,,0.32,weatherlink.com 1.10,2013-03-12 23:51:00,
2013-03-12 20:06:00,62.0,58.0,29.95,West,269,1.0,4.0,86,0.00,,,0.32,weatherlink.com 1.10,2013-03-13 00:06:00,
2013-03-12 20:22:00,61.3,57.0,29.96,WSW,258,1.0,2.0,87,0.00,,,0.32,weatherlink.com 1.10,2013-03-13 00:22:00,
2013-03-12 20:36:00,60.6,57.0,29.97,WSW,258,2.0,3.0,88,0.00,,,0.32,weatherlink.com 1.10,2013-03-13 00:36:00,
2013-03-12 20:51:00,59.9,57.0,29.97,SW,228,2.0,4.0,90,0.00,,,0.32,weatherlink.com 1.10,2013-03-13 00:51:00,
2013-03-12 21:07:00,59.5,57.0,29.98,West,263,2.0,3.0,90,0.00,,,0.32,weatherlink.com 1.10,2013-03-13 01:07:00,
2013-03-12 21:22:00,59.0,56.0,29.98,West,263,0.0,2.0,91,0.00,,,0.32,weatherlink.com 1.10,2013-03-13 01:22:00,
2013-03-12 21:37:00,58.5,56.0,29.99,West,261,0.0,3.0,91,0.00,,,0.32,weatherlink.com 1.10,2013-03-13 01:37:00,
2013-03-12 21:52:00,58.0,55.0,29.99,West,261,2.0,3.0,91,0.00,,,0.32,weatherlink.com 1.10,2013-03-13 01:52:00,
2013-03-12 22:07:00,57.5,55.0,30.00,West,271,1.0,4.0,91,0.00,,,0.32,weatherlink.com 1.10,2013-03-13 02:07:00,
2013-03-12 22:22:00,57.1,55.0,30.01,West,271,0.0,4.0,91,0.00,,,0.32,weatherlink.com 1.10,2013-03-13 02:22:00,
2013-03-12 22:37:00,56.8,54.0,30.01,NW,306,1.0,4.0,91,0.00,,,0.32,weatherlink.com 1.10,2013-03-13 02:37:00,
2013-03-12 22:52:00,56.4,54.0,30.02,NW,306,0.0,3.0,91,0.00,,,0.32,weatherlink.com 1.10,2013-03-13 02:52:00,
2013-03-12 23:07:00,56.0,54.0,30.02,West,281,1.0,3.0,91,0.00,,,0.32,weatherlink.com 1.10,2013-03-13 03:07:00,
2013-03-12 23:22:00,55.7,54.0,30.02,West,272,1.0,3.0,92,0.00,,,0.32,weatherlink.com 1.10,2013-03-13 03:22:00,
2013-03-12 23:37:00,55.4,53.0,30.02,West,272,1.0,3.0,92,0.00,,,0.32,weatherlink.com 1.10,2013-03-13 03:37:00,
2013-03-12 23:52:00,55.1,53.0,30.03,West,272,1.0,3.0,92,0.00,,,0.32,weatherlink.com 1.10,2013-03-13 03:52:00,